CMA CGM Homere — MQBL6 — position and weather

sailwx.info

Track history (hours):
 
Tides and Currents Weather Stations Pressure Air Temp Water Temp Dewpoint Dewpoint Depression Visibility Wind Speed Wind Dir Waves Ship Positions

CMA CGM Homere

Last reported at 2015-May-23 06:27 UTC. Time now 2015-May-27 01:45 UTC.
Position N 41°41' W 030°46'.

Length 170 m; draft 8.1 m.

Type: Ship (hazmat cat A). MMSI: 235052314.

Date/timePositionNaut miles runAvg speedWind from/ knotsBaromVisibWave heightAir tempDewpointWater temp
2015-May-23 06:27N 41°41' W 030°46'  
2015-May-20 07:17N 50°01' W 002°55'8317.5
2015-May-20 02:33N 49°43' W 000°49'1818.2
2015-May-20 01:34N 49°35' W 000°24'1515.1
2015-May-20 00:34N 49°30' W 000°02'8 8.1
2015-May-19 23:33N 49°29' E 000°10'0 0.0
2015-May-19 22:33N 49°29' E 000°10'0 0.0
2015-May-19 21:33N 49°29' E 000°10'0 0.0
2015-May-19 20:33N 49°29' E 000°10'0 0.0
2015-May-19 19:33N 49°29' E 000°10'0 0.0
2015-May-19 18:33N 49°29' E 000°10'0 0.0
2015-May-19 17:33N 49°29' E 000°10'0 0.0
2015-May-19 16:33N 49°29' E 000°10'0 0.0
2015-May-19 15:30N 49°29' E 000°10'0 0.0
2015-May-19 14:30N 49°29' E 000°10'0 0.0
2015-May-19 13:33N 49°29' E 000°10'0 0.0
2015-May-19 12:33N 49°29' E 000°10'0 0.0
2015-May-19 11:33N 49°29' E 000°10'0 0.0
2015-May-19 10:33N 49°29' E 000°10'0 0.0
2015-May-19 09:33N 49°29' E 000°10'0 0.0
2015-May-19 08:33N 49°29' E 000°10'0 0.0
2015-May-19 07:33N 49°29' E 000°10'0 0.0
2015-May-19 06:33N 49°29' E 000°10'0 0.0
2015-May-19 05:30N 49°29' E 000°10'0 0.0
2015-May-19 04:30N 49°29' E 000°10'0 0.0
2015-May-19 03:33N 49°29' E 000°10'3 2.6
2015-May-19 02:33N 49°29' E 000°06'1010.3
2015-May-19 01:33N 49°32' W 000°09'9 9.2
2015-May-19 00:33N 49°37' W 000°21'9 9.5
2015-May-18 23:33N 49°44' W 000°30'58 8.2
2015-May-18 16:31N 50°32' E 000°20'9 9.0
2015-May-18 15:33N 50°35' E 000°33'9 8.8
2015-May-18 14:34N 50°40' E 000°44'9 9.2
2015-May-18 13:33N 50°46' E 000°55'10 9.4
2015-May-18 12:32N 50°53' E 001°06'9 9.1
2015-May-18 11:31N 50°59' E 001°17'8 8.7
2015-May-18 10:33N 51°04' E 001°27'9 8.6
2015-May-18 09:34N 51°10' E 001°38'9 8.9
2015-May-18 08:33N 51°16' E 001°48'1010.3
2015-May-18 07:33N 51°24' E 001°58'1010.1
2015-May-18 06:33N 51°32' E 002°07'1010.2
2015-May-18 05:33N 51°40' E 002°17'10 9.6
2015-May-18 04:33N 51°48' E 002°27'35 8.3
2015-May-18 00:22N 52°02' E 003°18'7 9.1
2015-May-17 23:34N 52°03' E 003°30'1010.4
2015-May-17 22:33N 52°04' E 003°47'10 9.7
2015-May-17 21:34N 52°00' E 004°02'1211.6
2015-May-17 20:33N 51°54' E 004°17'5 4.4
2015-May-17 19:32N 51°53' E 004°24'0 0.0
2015-May-17 18:32N 51°53' E 004°24'0 0.0
2015-May-17 17:32N 51°53' E 004°24'0 0.0
2015-May-17 16:32N 51°53' E 004°24'0 0.0
2015-May-17 15:32N 51°53' E 004°24'0 0.0
2015-May-17 14:32N 51°53' E 004°24'0 0.0
2015-May-17 13:32N 51°53' E 004°24'0 0.0
2015-May-17 12:32N 51°53' E 004°24'0 0.0
2015-May-17 11:32N 51°53' E 004°24'0 0.0
2015-May-17 10:32N 51°53' E 004°24'0 0.0
2015-May-17 09:32N 51°53' E 004°24'0 0.0
2015-May-17 08:29N 51°53' E 004°24'0 0.0
2015-May-17 07:32N 51°53' E 004°24'0 0.0
2015-May-17 06:32N 51°53' E 004°24'0 0.0
2015-May-17 05:32N 51°53' E 004°24'0 0.0
2015-May-17 04:29N 51°53' E 004°24'0 0.0
2015-May-17 03:32N 51°53' E 004°24'0 0.0
2015-May-17 02:32N 51°53' E 004°24'0 0.0
2015-May-17 01:32N 51°53' E 004°24'0 0.0
2015-May-17 00:32N 51°53' E 004°24'0 0.0
2015-May-16 23:32N 51°53' E 004°24'0 0.0
2015-May-16 22:32N 51°53' E 004°24'0 0.0
2015-May-16 21:32N 51°53' E 004°24'0 0.0
2015-May-16 20:32N 51°53' E 004°24'0 0.0
2015-May-16 19:32N 51°53' E 004°24'0 0.0
2015-May-16 18:32N 51°53' E 004°24'0 0.0
2015-May-16 17:32N 51°53' E 004°24'0 0.0
2015-May-16 16:33N 51°53' E 004°24'0 0.0
2015-May-16 15:32N 51°53' E 004°24'0 0.0
2015-May-16 14:32N 51°53' E 004°24'0 0.0
2015-May-16 13:32N 51°53' E 004°24'0 0.0
2015-May-16 12:32N 51°53' E 004°24'0 0.0
2015-May-16 11:32N 51°53' E 004°24'0 0.0
2015-May-16 10:32N 51°53' E 004°24'1 1.2
2015-May-16 09:34N 51°54' E 004°23'8 8.0
2015-May-16 08:33N 51°57' E 004°11'1010.4
2015-May-16 07:33N 51°60' E 003°55'1110.8
2015-May-16 06:33N 51°58' E 003°38'1615.3
2015-May-16 05:30N 51°53' E 003°13'2814.3
2015-May-16 03:32N 51°52' E 002°27'1414.7
2015-May-16 02:33N 51°42' E 002°10'1514.8
2015-May-16 01:34N 51°34' E 001°51'1515.0
2015-May-16 00:33N 51°28' E 001°29'1615.6
2015-May-15 23:33N 51°30' E 001°04'1615.8
2015-May-15 22:33N 51°30' E 000°38'1111.2
2015-May-15 21:34N 51°27' E 000°21'1 1.1
2015-May-15 20:34N 51°28' E 000°20'0 0.0
2015-May-15 19:33N 51°28' E 000°20'0 0.0
2015-May-15 18:34N 51°28' E 000°20'0 0.0
2015-May-15 17:33N 51°28' E 000°20'0 0.0
2015-May-15 16:32N 51°28' E 000°20'0 0.0
2015-May-15 15:32N 51°28' E 000°20'0 0.0
2015-May-15 14:33N 51°28' E 000°20'0 0.0
2015-May-15 13:33N 51°28' E 000°20'0 0.0
2015-May-15 12:34N 51°28' E 000°20'0 0.0
2015-May-15 11:34N 51°28' E 000°20'0 0.0
2015-May-15 10:34N 51°28' E 000°20'0 0.0
2015-May-15 09:34N 51°28' E 000°20'0 0.0
2015-May-15 08:34N 51°28' E 000°20'5 4.6
2015-May-15 07:34N 51°29' E 000°27'1514.9
2015-May-15 06:34N 51°30' E 000°51'1616.4
2015-May-15 05:34N 51°29' E 001°17'1211.6
2015-May-15 04:34N 51°23' E 001°34'9 9.1
2015-May-15 03:34N 51°15' E 001°38'10 9.8
2015-May-15 02:34N 51°05' E 001°38'10 9.5
2015-May-15 01:34N 50°57' E 001°28'10 9.6
2015-May-15 00:32N 50°48' E 001°23'32 9.7
2015-May-14 21:13N 50°28' E 000°43'810.4
2015-May-14 20:24N 50°26' E 000°31'24711.3
2015-May-13 22:33N 48°52' W 005°23'5313.3
2015-May-13 18:33N 48°08' W 006°08'  
Track history (hours):
 
Tides and Currents Weather Stations Pressure Air Temp Water Temp Dewpoint Dewpoint Depression Visibility Wind Speed Wind Dir Waves Ship Positions

CMA CGM Homere

Last reported at 2015-May-23 06:27 UTC. Time now 2015-May-27 01:45 UTC.
Position N 41°41' W 030°46'.

Length 170 m; draft 8.1 m.

Type: Ship (hazmat cat A). MMSI: 235052314.

Date/timePositionNaut miles runAvg speedWind from/ knotsBaromVisibWave heightAir tempDewpointWater temp
2015-May-23 06:27N 41°41' W 030°46'  
2015-May-20 07:17N 50°01' W 002°55'8317.5
2015-May-20 02:33N 49°43' W 000°49'1818.2
2015-May-20 01:34N 49°35' W 000°24'1515.1
2015-May-20 00:34N 49°30' W 000°02'8 8.1
2015-May-19 23:33N 49°29' E 000°10'0 0.0
2015-May-19 22:33N 49°29' E 000°10'0 0.0
2015-May-19 21:33N 49°29' E 000°10'0 0.0
2015-May-19 20:33N 49°29' E 000°10'0 0.0
2015-May-19 19:33N 49°29' E 000°10'0 0.0
2015-May-19 18:33N 49°29' E 000°10'0 0.0
2015-May-19 17:33N 49°29' E 000°10'0 0.0
2015-May-19 16:33N 49°29' E 000°10'0 0.0
2015-May-19 15:30N 49°29' E 000°10'0 0.0
2015-May-19 14:30N 49°29' E 000°10'0 0.0
2015-May-19 13:33N 49°29' E 000°10'0 0.0
2015-May-19 12:33N 49°29' E 000°10'0 0.0
2015-May-19 11:33N 49°29' E 000°10'0 0.0
2015-May-19 10:33N 49°29' E 000°10'0 0.0
2015-May-19 09:33N 49°29' E 000°10'0 0.0
2015-May-19 08:33N 49°29' E 000°10'0 0.0
2015-May-19 07:33N 49°29' E 000°10'0 0.0
2015-May-19 06:33N 49°29' E 000°10'0 0.0
2015-May-19 05:30N 49°29' E 000°10'0 0.0
2015-May-19 04:30N 49°29' E 000°10'0 0.0
2015-May-19 03:33N 49°29' E 000°10'3 2.6
2015-May-19 02:33N 49°29' E 000°06'1010.3
2015-May-19 01:33N 49°32' W 000°09'9 9.2
2015-May-19 00:33N 49°37' W 000°21'9 9.5
2015-May-18 23:33N 49°44' W 000°30'58 8.2
2015-May-18 16:31N 50°32' E 000°20'9 9.0
2015-May-18 15:33N 50°35' E 000°33'9 8.8
2015-May-18 14:34N 50°40' E 000°44'9 9.2
2015-May-18 13:33N 50°46' E 000°55'10 9.4
2015-May-18 12:32N 50°53' E 001°06'9 9.1
2015-May-18 11:31N 50°59' E 001°17'8 8.7
2015-May-18 10:33N 51°04' E 001°27'9 8.6
2015-May-18 09:34N 51°10' E 001°38'9 8.9
2015-May-18 08:33N 51°16' E 001°48'1010.3
2015-May-18 07:33N 51°24' E 001°58'1010.1
2015-May-18 06:33N 51°32' E 002°07'1010.2
2015-May-18 05:33N 51°40' E 002°17'10 9.6
2015-May-18 04:33N 51°48' E 002°27'35 8.3
2015-May-18 00:22N 52°02' E 003°18'7 9.1
2015-May-17 23:34N 52°03' E 003°30'1010.4
2015-May-17 22:33N 52°04' E 003°47'10 9.7
2015-May-17 21:34N 52°00' E 004°02'1211.6
2015-May-17 20:33N 51°54' E 004°17'5 4.4
2015-May-17 19:32N 51°53' E 004°24'0 0.0
2015-May-17 18:32N 51°53' E 004°24'0 0.0
2015-May-17 17:32N 51°53' E 004°24'0 0.0
2015-May-17 16:32N 51°53' E 004°24'0 0.0
2015-May-17 15:32N 51°53' E 004°24'0 0.0
2015-May-17 14:32N 51°53' E 004°24'0 0.0
2015-May-17 13:32N 51°53' E 004°24'0 0.0
2015-May-17 12:32N 51°53' E 004°24'0 0.0
2015-May-17 11:32N 51°53' E 004°24'0 0.0
2015-May-17 10:32N 51°53' E 004°24'0 0.0
2015-May-17 09:32N 51°53' E 004°24'0 0.0
2015-May-17 08:29N 51°53' E 004°24'0 0.0
2015-May-17 07:32N 51°53' E 004°24'0 0.0
2015-May-17 06:32N 51°53' E 004°24'0 0.0
2015-May-17 05:32N 51°53' E 004°24'0 0.0
2015-May-17 04:29N 51°53' E 004°24'0 0.0
2015-May-17 03:32N 51°53' E 004°24'0 0.0
2015-May-17 02:32N 51°53' E 004°24'0 0.0
2015-May-17 01:32N 51°53' E 004°24'0 0.0
2015-May-17 00:32N 51°53' E 004°24'0 0.0
2015-May-16 23:32N 51°53' E 004°24'0 0.0
2015-May-16 22:32N 51°53' E 004°24'0 0.0
2015-May-16 21:32N 51°53' E 004°24'0 0.0
2015-May-16 20:32N 51°53' E 004°24'0 0.0
2015-May-16 19:32N 51°53' E 004°24'0 0.0
2015-May-16 18:32N 51°53' E 004°24'0 0.0
2015-May-16 17:32N 51°53' E 004°24'0 0.0
2015-May-16 16:33N 51°53' E 004°24'0 0.0
2015-May-16 15:32N 51°53' E 004°24'0 0.0
2015-May-16 14:32N 51°53' E 004°24'0 0.0
2015-May-16 13:32N 51°53' E 004°24'0 0.0
2015-May-16 12:32N 51°53' E 004°24'0 0.0
2015-May-16 11:32N 51°53' E 004°24'0 0.0
2015-May-16 10:32N 51°53' E 004°24'1 1.2
2015-May-16 09:34N 51°54' E 004°23'8 8.0
2015-May-16 08:33N 51°57' E 004°11'1010.4
2015-May-16 07:33N 51°60' E 003°55'1110.8
2015-May-16 06:33N 51°58' E 003°38'1615.3
2015-May-16 05:30N 51°53' E 003°13'2814.3
2015-May-16 03:32N 51°52' E 002°27'1414.7
2015-May-16 02:33N 51°42' E 002°10'1514.8
2015-May-16 01:34N 51°34' E 001°51'1515.0
2015-May-16 00:33N 51°28' E 001°29'1615.6
2015-May-15 23:33N 51°30' E 001°04'1615.8
2015-May-15 22:33N 51°30' E 000°38'1111.2
2015-May-15 21:34N 51°27' E 000°21'1 1.1
2015-May-15 20:34N 51°28' E 000°20'0 0.0
2015-May-15 19:33N 51°28' E 000°20'0 0.0
2015-May-15 18:34N 51°28' E 000°20'0 0.0
2015-May-15 17:33N 51°28' E 000°20'0 0.0
2015-May-15 16:32N 51°28' E 000°20'0 0.0
2015-May-15 15:32N 51°28' E 000°20'0 0.0
2015-May-15 14:33N 51°28' E 000°20'0 0.0
2015-May-15 13:33N 51°28' E 000°20'0 0.0
2015-May-15 12:34N 51°28' E 000°20'0 0.0
2015-May-15 11:34N 51°28' E 000°20'0 0.0
2015-May-15 10:34N 51°28' E 000°20'0 0.0
2015-May-15 09:34N 51°28' E 000°20'0 0.0
2015-May-15 08:34N 51°28' E 000°20'5 4.6
2015-May-15 07:34N 51°29' E 000°27'1514.9
2015-May-15 06:34N 51°30' E 000°51'1616.4
2015-May-15 05:34N 51°29' E 001°17'1211.6
2015-May-15 04:34N 51°23' E 001°34'9 9.1
2015-May-15 03:34N 51°15' E 001°38'10 9.8
2015-May-15 02:34N 51°05' E 001°38'10 9.5
2015-May-15 01:34N 50°57' E 001°28'10 9.6
2015-May-15 00:32N 50°48' E 001°23'32 9.7
2015-May-14 21:13N 50°28' E 000°43'810.4
2015-May-14 20:24N 50°26' E 000°31'24711.3
2015-May-13 22:33N 48°52' W 005°23'5313.3
2015-May-13 18:33N 48°08' W 006°08'  

Dump ship's entire track history